sensor_id;sensor_type;location;lat;lon;timestamp;noise_LAeq;noise_LA_min;noise_LA_max;noise_LA01;noise_LA95
41704;Laerm;861;48.808;9.006;2023-07-16T00:00:18;30.13;28.94;31.54;;
41704;Laerm;861;48.808;9.006;2023-07-16T00:02:46;30.13;28.93;31.40;;
41704;Laerm;861;48.808;9.006;2023-07-16T00:05:13;30.10;28.85;31.18;;
41704;Laerm;861;48.808;9.006;2023-07-16T00:07:39;30.09;28.87;31.42;;
41704;Laerm;861;48.808;9.006;2023-07-16T00:10:06;30.07;28.55;31.35;;
41704;Laerm;861;48.808;9.006;2023-07-16T00:12:33;30.08;28.76;31.18;;
41704;Laerm;861;48.808;9.006;2023-07-16T00:14:59;30.06;28.59;31.13;;
41704;Laerm;861;48.808;9.006;2023-07-16T00:17:26;30.06;28.62;31.31;;
41704;Laerm;861;48.808;9.006;2023-07-16T00:19:52;29.98;28.71;31.06;;
41704;Laerm;861;48.808;9.006;2023-07-16T00:22:19;29.96;28.61;31.29;;
41704;Laerm;861;48.808;9.006;2023-07-16T00:24:45;29.96;28.79;31.30;;
41704;Laerm;861;48.808;9.006;2023-07-16T00:27:12;29.95;28.59;31.10;;
41704;Laerm;861;48.808;9.006;2023-07-16T00:29:38;29.94;28.55;31.13;;
41704;Laerm;861;48.808;9.006;2023-07-16T00:32:05;29.93;28.72;31.10;;
41704;Laerm;861;48.808;9.006;2023-07-16T00:34:32;29.94;28.65;31.22;;
41704;Laerm;861;48.808;9.006;2023-07-16T00:36:58;29.92;28.62;31.16;;
41704;Laerm;861;48.808;9.006;2023-07-16T00:39:29;29.91;28.51;31.24;;
41704;Laerm;861;48.808;9.006;2023-07-16T00:41:56;29.92;28.59;31.10;;
41704;Laerm;861;48.808;9.006;2023-07-16T00:44:23;29.92;28.65;31.23;;
41704;Laerm;861;48.808;9.006;2023-07-16T00:46:51;29.95;28.74;47.42;;
41704;Laerm;861;48.808;9.006;2023-07-16T00:49:18;29.88;28.46;31.03;;
41704;Laerm;861;48.808;9.006;2023-07-16T00:51:45;29.85;28.14;31.01;;
41704;Laerm;861;48.808;9.006;2023-07-16T00:54:12;29.84;28.65;30.97;;
41704;Laerm;861;48.808;9.006;2023-07-16T00:56:39;29.84;28.62;31.05;;
41704;Laerm;861;48.808;9.006;2023-07-16T00:59:06;29.84;28.58;31.29;;
41704;Laerm;861;48.808;9.006;2023-07-16T01:01:32;29.82;28.26;31.18;;
41704;Laerm;861;48.808;9.006;2023-07-16T01:03:59;29.82;28.54;31.10;;
41704;Laerm;861;48.808;9.006;2023-07-16T01:06:41;29.81;28.60;30.95;;
41704;Laerm;861;48.808;9.006;2023-07-16T01:09:19;29.80;28.43;31.11;;
41704;Laerm;861;48.808;9.006;2023-07-16T01:11:49;29.79;28.56;31.14;;
41704;Laerm;861;48.808;9.006;2023-07-16T01:14:19;29.81;28.54;42.28;;
41704;Laerm;861;48.808;9.006;2023-07-16T01:16:46;29.80;28.43;31.05;;
41704;Laerm;861;48.808;9.006;2023-07-16T01:19:13;29.79;28.48;30.88;;
41704;Laerm;861;48.808;9.006;2023-07-16T01:22:24;29.77;28.34;31.09;;
41704;Laerm;861;48.808;9.006;2023-07-16T01:31:11;29.73;28.16;30.97;;
41704;Laerm;861;48.808;9.006;2023-07-16T01:33:42;29.71;27.87;30.90;;
41704;Laerm;861;48.808;9.006;2023-07-16T01:36:10;29.71;28.29;30.89;;
41704;Laerm;861;48.808;9.006;2023-07-16T01:38:38;29.69;28.26;30.92;;
41704;Laerm;861;48.808;9.006;2023-07-16T01:41:05;29.69;28.25;30.77;;
41704;Laerm;861;48.808;9.006;2023-07-16T01:43:32;29.70;28.38;30.83;;
41704;Laerm;861;48.808;9.006;2023-07-16T01:45:59;29.70;28.37;30.95;;
41704;Laerm;861;48.808;9.006;2023-07-16T01:48:38;29.69;28.24;31.08;;
41704;Laerm;861;48.808;9.006;2023-07-16T01:51:05;29.69;28.45;30.99;;
41704;Laerm;861;48.808;9.006;2023-07-16T01:53:33;29.68;28.31;30.78;;
41704;Laerm;861;48.808;9.006;2023-07-16T01:56:02;29.74;28.39;30.95;;
41704;Laerm;861;48.808;9.006;2023-07-16T01:58:29;29.72;28.27;33.44;;
41704;Laerm;861;48.808;9.006;2023-07-16T02:00:55;29.69;28.40;30.86;;
41704;Laerm;861;48.808;9.006;2023-07-16T02:03:22;29.68;28.32;34.11;;
41704;Laerm;861;48.808;9.006;2023-07-16T02:05:49;29.67;28.43;30.79;;
41704;Laerm;861;48.808;9.006;2023-07-16T02:08:18;29.68;28.45;30.92;;
41704;Laerm;861;48.808;9.006;2023-07-16T02:10:47;29.66;27.90;30.82;;
41704;Laerm;861;48.808;9.006;2023-07-16T02:13:15;29.67;28.38;34.82;;
41704;Laerm;861;48.808;9.006;2023-07-16T02:15:43;29.68;28.43;33.67;;
41704;Laerm;861;48.808;9.006;2023-07-16T02:18:11;29.68;28.41;30.89;;
41704;Laerm;861;48.808;9.006;2023-07-16T02:20:38;29.68;28.14;31.03;;
41704;Laerm;861;48.808;9.006;2023-07-16T02:23:04;29.68;28.37;30.95;;
41704;Laerm;861;48.808;9.006;2023-07-16T02:25:33;29.66;28.46;30.79;;
41704;Laerm;861;48.808;9.006;2023-07-16T02:28:00;29.67;28.31;30.89;;
41704;Laerm;861;48.808;9.006;2023-07-16T02:30:27;29.66;28.24;30.84;;
41704;Laerm;861;48.808;9.006;2023-07-16T02:32:55;29.67;28.12;30.88;;
41704;Laerm;861;48.808;9.006;2023-07-16T02:35:21;29.67;27.87;30.79;;
41704;Laerm;861;48.808;9.006;2023-07-16T02:37:48;29.65;28.44;30.87;;
41704;Laerm;861;48.808;9.006;2023-07-16T02:40:14;29.66;28.48;34.86;;
41704;Laerm;861;48.808;9.006;2023-07-16T02:42:41;29.65;28.38;31.01;;
41704;Laerm;861;48.808;9.006;2023-07-16T02:45:08;29.64;28.40;30.84;;
41704;Laerm;861;48.808;9.006;2023-07-16T02:47:35;29.64;28.28;30.92;;
41704;Laerm;861;48.808;9.006;2023-07-16T02:50:01;29.64;28.19;30.86;;
41704;Laerm;861;48.808;9.006;2023-07-16T02:52:29;29.64;28.49;30.96;;
41704;Laerm;861;48.808;9.006;2023-07-16T02:54:56;29.65;28.26;30.97;;
41704;Laerm;861;48.808;9.006;2023-07-16T02:57:23;29.69;28.42;46.32;;
41704;Laerm;861;48.808;9.006;2023-07-16T02:59:49;29.65;28.23;30.81;;
41704;Laerm;861;48.808;9.006;2023-07-16T03:02:16;29.65;28.34;30.85;;
41704;Laerm;861;48.808;9.006;2023-07-16T03:04:43;29.66;28.05;31.02;;
41704;Laerm;861;48.808;9.006;2023-07-16T03:07:09;29.64;28.27;30.99;;
41704;Laerm;861;48.808;9.006;2023-07-16T03:09:36;29.63;28.33;31.11;;
41704;Laerm;861;48.808;9.006;2023-07-16T03:12:03;29.64;28.24;31.03;;
41704;Laerm;861;48.808;9.006;2023-07-16T03:14:31;29.63;28.29;30.97;;
41704;Laerm;861;48.808;9.006;2023-07-16T03:16:58;29.62;28.23;30.84;;
41704;Laerm;861;48.808;9.006;2023-07-16T03:19:24;29.61;28.20;30.84;;
41704;Laerm;861;48.808;9.006;2023-07-16T03:21:51;29.63;28.24;31.21;;
41704;Laerm;861;48.808;9.006;2023-07-16T03:24:17;29.63;28.35;30.76;;
41704;Laerm;861;48.808;9.006;2023-07-16T03:26:44;29.73;28.39;49.79;;
41704;Laerm;861;48.808;9.006;2023-07-16T03:29:10;29.63;28.21;30.94;;
41704;Laerm;861;48.808;9.006;2023-07-16T03:31:37;29.62;28.25;31.30;;
41704;Laerm;861;48.808;9.006;2023-07-16T03:34:05;29.62;28.38;30.94;;
41704;Laerm;861;48.808;9.006;2023-07-16T03:36:31;29.61;28.24;31.04;;
41704;Laerm;861;48.808;9.006;2023-07-16T03:38:58;29.61;28.43;31.28;;
41704;Laerm;861;48.808;9.006;2023-07-16T03:41:24;29.60;28.38;31.02;;
41704;Laerm;861;48.808;9.006;2023-07-16T03:43:51;29.60;28.44;31.04;;
41704;Laerm;861;48.808;9.006;2023-07-16T03:46:17;29.59;28.27;30.72;;
41704;Laerm;861;48.808;9.006;2023-07-16T03:48:44;29.60;28.03;30.81;;
41704;Laerm;861;48.808;9.006;2023-07-16T03:51:11;29.60;28.38;30.91;;
41704;Laerm;861;48.808;9.006;2023-07-16T03:53:38;29.61;28.29;31.17;;
41704;Laerm;861;48.808;9.006;2023-07-16T03:56:05;29.61;28.39;31.06;;
41704;Laerm;861;48.808;9.006;2023-07-16T03:58:33;29.61;28.38;32.99;;
41704;Laerm;861;48.808;9.006;2023-07-16T04:00:59;29.60;28.33;33.26;;
41704;Laerm;861;48.808;9.006;2023-07-16T04:03:26;29.61;28.35;31.44;;
41704;Laerm;861;48.808;9.006;2023-07-16T04:06:04;29.62;28.31;32.83;;
41704;Laerm;861;48.808;9.006;2023-07-16T04:08:31;29.62;28.24;31.79;;
41704;Laerm;861;48.808;9.006;2023-07-16T04:10:58;29.59;28.16;30.99;;
41704;Laerm;861;48.808;9.006;2023-07-16T04:13:24;29.59;28.21;30.80;;
41704;Laerm;861;48.808;9.006;2023-07-16T04:15:51;29.62;28.29;31.03;;
41704;Laerm;861;48.808;9.006;2023-07-16T04:18:21;29.62;28.45;31.18;;
41704;Laerm;861;48.808;9.006;2023-07-16T04:20:48;29.60;28.38;30.87;;
41704;Laerm;861;48.808;9.006;2023-07-16T04:23:14;29.61;28.27;31.21;;
41704;Laerm;861;48.808;9.006;2023-07-16T04:25:41;29.59;28.36;30.94;;
41704;Laerm;861;48.808;9.006;2023-07-16T04:28:09;29.61;28.47;31.48;;
41704;Laerm;861;48.808;9.006;2023-07-16T04:30:36;29.60;28.34;30.88;;
41704;Laerm;861;48.808;9.006;2023-07-16T04:33:04;29.61;28.24;31.03;;
41704;Laerm;861;48.808;9.006;2023-07-16T04:35:32;29.61;28.31;31.44;;
41704;Laerm;861;48.808;9.006;2023-07-16T04:37:59;29.56;28.23;30.77;;
41704;Laerm;861;48.808;9.006;2023-07-16T04:40:25;29.58;28.24;30.99;;
41704;Laerm;861;48.808;9.006;2023-07-16T04:42:52;29.62;28.18;31.81;;
41704;Laerm;861;48.808;9.006;2023-07-16T04:45:19;29.95;28.30;33.22;;
41704;Laerm;861;48.808;9.006;2023-07-16T04:47:45;30.42;28.88;36.13;;
41704;Laerm;861;48.808;9.006;2023-07-16T04:50:12;30.72;29.29;33.90;;
41704;Laerm;861;48.808;9.006;2023-07-16T04:52:39;31.07;29.13;35.99;;
41704;Laerm;861;48.808;9.006;2023-07-16T04:55:06;31.15;29.64;38.82;;
41704;Laerm;861;48.808;9.006;2023-07-16T04:57:34;31.53;29.90;40.65;;
41704;Laerm;861;48.808;9.006;2023-07-16T05:00:00;31.50;30.12;39.58;;
41704;Laerm;861;48.808;9.006;2023-07-16T05:02:27;31.44;30.08;32.92;;
41704;Laerm;861;48.808;9.006;2023-07-16T05:04:54;31.65;30.29;33.07;;
41704;Laerm;861;48.808;9.006;2023-07-16T05:07:20;32.13;30.54;33.30;;
41704;Laerm;861;48.808;9.006;2023-07-16T05:09:47;32.98;31.32;34.27;;
41704;Laerm;861;48.808;9.006;2023-07-16T05:12:13;33.47;31.81;34.57;;
41704;Laerm;861;48.808;9.006;2023-07-16T05:14:49;33.89;32.60;35.48;;
41704;Laerm;861;48.808;9.006;2023-07-16T05:17:16;34.11;32.76;35.58;;
41704;Laerm;861;48.808;9.006;2023-07-16T05:19:43;34.30;33.00;35.76;;
41704;Laerm;861;48.808;9.006;2023-07-16T05:22:10;34.32;33.10;36.68;;
41704;Laerm;861;48.808;9.006;2023-07-16T05:24:37;34.44;33.26;35.61;;
41704;Laerm;861;48.808;9.006;2023-07-16T05:27:04;34.50;33.17;35.68;;
41704;Laerm;861;48.808;9.006;2023-07-16T05:29:30;34.63;33.29;35.86;;
41704;Laerm;861;48.808;9.006;2023-07-16T05:31:57;34.79;33.44;36.11;;
41704;Laerm;861;48.808;9.006;2023-07-16T05:34:24;34.97;33.67;36.15;;
41704;Laerm;861;48.808;9.006;2023-07-16T05:36:55;34.90;33.35;36.07;;
41704;Laerm;861;48.808;9.006;2023-07-16T05:39:23;35.02;33.56;36.22;;
41704;Laerm;861;48.808;9.006;2023-07-16T05:41:49;35.24;33.94;36.55;;
41704;Laerm;861;48.808;9.006;2023-07-16T05:44:16;35.47;34.22;36.84;;
41704;Laerm;861;48.808;9.006;2023-07-16T05:46:43;35.30;34.14;36.67;;
41704;Laerm;861;48.808;9.006;2023-07-16T05:49:09;35.36;34.18;36.59;;
41704;Laerm;861;48.808;9.006;2023-07-16T05:51:36;35.28;34.03;36.58;;
41704;Laerm;861;48.808;9.006;2023-07-16T05:54:03;35.26;33.96;36.48;;
41704;Laerm;861;48.808;9.006;2023-07-16T05:56:30;35.21;34.03;36.43;;
41704;Laerm;861;48.808;9.006;2023-07-16T05:58:57;35.19;33.94;36.53;;
41704;Laerm;861;48.808;9.006;2023-07-16T06:01:24;35.35;34.10;36.56;;
41704;Laerm;861;48.808;9.006;2023-07-16T06:03:50;35.46;34.04;36.69;;
41704;Laerm;861;48.808;9.006;2023-07-16T06:06:17;35.42;34.26;36.61;;
41704;Laerm;861;48.808;9.006;2023-07-16T06:08:43;35.44;34.17;36.64;;
41704;Laerm;861;48.808;9.006;2023-07-16T06:11:10;35.35;34.15;36.60;;
41704;Laerm;861;48.808;9.006;2023-07-16T06:13:37;35.45;34.11;36.61;;
41704;Laerm;861;48.808;9.006;2023-07-16T06:16:07;35.51;34.14;36.72;;
41704;Laerm;861;48.808;9.006;2023-07-16T06:18:38;35.49;34.10;36.64;;
41704;Laerm;861;48.808;9.006;2023-07-16T06:21:04;35.38;34.08;36.46;;
41704;Laerm;861;48.808;9.006;2023-07-16T06:23:31;35.56;34.16;36.82;;
41704;Laerm;861;48.808;9.006;2023-07-16T06:25:58;35.48;34.04;36.72;;
41704;Laerm;861;48.808;9.006;2023-07-16T06:28:25;35.54;34.24;36.70;;
41704;Laerm;861;48.808;9.006;2023-07-16T06:30:52;35.63;34.45;37.19;;
41704;Laerm;861;48.808;9.006;2023-07-16T06:33:19;35.53;34.22;36.67;;
41704;Laerm;861;48.808;9.006;2023-07-16T06:35:48;35.57;34.18;36.89;;
41704;Laerm;861;48.808;9.006;2023-07-16T06:38:15;35.60;34.20;36.66;;
41704;Laerm;861;48.808;9.006;2023-07-16T06:40:50;35.64;34.18;36.90;;
41704;Laerm;861;48.808;9.006;2023-07-16T06:43:18;35.73;34.45;37.09;;
41704;Laerm;861;48.808;9.006;2023-07-16T06:45:45;35.73;34.52;36.95;;
41704;Laerm;861;48.808;9.006;2023-07-16T06:48:11;35.70;34.48;36.87;;
41704;Laerm;861;48.808;9.006;2023-07-16T06:50:38;35.73;34.46;37.08;;
41704;Laerm;861;48.808;9.006;2023-07-16T06:53:04;35.83;34.63;37.05;;
41704;Laerm;861;48.808;9.006;2023-07-16T06:55:31;35.74;34.36;36.85;;
41704;Laerm;861;48.808;9.006;2023-07-16T06:58:00;35.78;34.53;36.84;;
41704;Laerm;861;48.808;9.006;2023-07-16T07:00:27;35.82;34.31;37.30;;
41704;Laerm;861;48.808;9.006;2023-07-16T07:02:53;35.86;34.43;37.04;;
41704;Laerm;861;48.808;9.006;2023-07-16T07:05:20;35.85;34.56;37.09;;
41704;Laerm;861;48.808;9.006;2023-07-16T07:07:47;35.88;34.66;37.40;;
41704;Laerm;861;48.808;9.006;2023-07-16T07:10:14;35.96;34.57;37.24;;
41704;Laerm;861;48.808;9.006;2023-07-16T07:12:41;35.99;34.74;37.30;;
41704;Laerm;861;48.808;9.006;2023-07-16T07:15:11;36.09;34.67;37.34;;
41704;Laerm;861;48.808;9.006;2023-07-16T07:17:38;36.09;34.96;37.14;;
41704;Laerm;861;48.808;9.006;2023-07-16T07:20:06;35.99;34.77;37.11;;
41704;Laerm;861;48.808;9.006;2023-07-16T07:22:33;36.03;34.62;37.15;;
41704;Laerm;861;48.808;9.006;2023-07-16T07:24:59;36.12;34.88;37.35;;
41704;Laerm;861;48.808;9.006;2023-07-16T07:27:26;36.14;34.87;37.16;;
41704;Laerm;861;48.808;9.006;2023-07-16T07:29:53;36.06;34.97;37.20;;
41704;Laerm;861;48.808;9.006;2023-07-16T07:32:23;36.12;34.90;37.27;;
41704;Laerm;861;48.808;9.006;2023-07-16T07:34:49;36.04;34.64;37.19;;
41704;Laerm;861;48.808;9.006;2023-07-16T07:37:16;36.03;34.71;37.17;;
41704;Laerm;861;48.808;9.006;2023-07-16T07:39:43;35.99;34.64;37.19;;
41704;Laerm;861;48.808;9.006;2023-07-16T07:42:13;36.07;34.58;37.41;;
41704;Laerm;861;48.808;9.006;2023-07-16T07:44:39;36.02;34.73;37.55;;
41704;Laerm;861;48.808;9.006;2023-07-16T07:47:06;36.10;34.63;37.25;;
41704;Laerm;861;48.808;9.006;2023-07-16T07:49:35;36.14;34.94;37.44;;
41704;Laerm;861;48.808;9.006;2023-07-16T07:52:02;36.27;34.86;37.45;;
41704;Laerm;861;48.808;9.006;2023-07-16T07:54:31;36.34;35.15;37.60;;
41704;Laerm;861;48.808;9.006;2023-07-16T07:57:01;36.33;35.05;37.60;;
41704;Laerm;861;48.808;9.006;2023-07-16T07:59:31;36.48;35.28;38.46;;
41704;Laerm;861;48.808;9.006;2023-07-16T08:01:59;36.42;35.08;37.69;;
41704;Laerm;861;48.808;9.006;2023-07-16T08:04:28;36.54;35.10;37.81;;
41704;Laerm;861;48.808;9.006;2023-07-16T08:06:55;36.46;35.17;37.97;;
41704;Laerm;861;48.808;9.006;2023-07-16T08:09:22;36.51;34.93;37.71;;
41704;Laerm;861;48.808;9.006;2023-07-16T08:11:48;36.73;35.42;38.31;;
41704;Laerm;861;48.808;9.006;2023-07-16T08:14:15;36.77;35.61;37.98;;
41704;Laerm;861;48.808;9.006;2023-07-16T08:16:42;36.76;35.30;38.04;;
41704;Laerm;861;48.808;9.006;2023-07-16T08:19:09;36.83;35.53;38.04;;
41704;Laerm;861;48.808;9.006;2023-07-16T08:21:36;36.82;35.51;38.06;;
41704;Laerm;861;48.808;9.006;2023-07-16T08:24:06;36.77;35.34;38.05;;
41704;Laerm;861;48.808;9.006;2023-07-16T08:26:33;36.81;35.28;38.02;;
41704;Laerm;861;48.808;9.006;2023-07-16T08:29:00;36.85;35.43;38.09;;
41704;Laerm;861;48.808;9.006;2023-07-16T08:31:28;36.89;35.49;38.06;;
41704;Laerm;861;48.808;9.006;2023-07-16T08:33:54;36.79;35.59;37.86;;
41704;Laerm;861;48.808;9.006;2023-07-16T08:36:21;36.70;35.39;37.93;;
41704;Laerm;861;48.808;9.006;2023-07-16T08:38:48;36.70;35.49;37.87;;
41704;Laerm;861;48.808;9.006;2023-07-16T08:41:15;36.78;35.48;37.96;;
41704;Laerm;861;48.808;9.006;2023-07-16T08:43:45;36.87;35.72;38.16;;
41704;Laerm;861;48.808;9.006;2023-07-16T08:46:14;36.78;35.59;38.27;;
41704;Laerm;861;48.808;9.006;2023-07-16T08:48:41;36.82;35.60;37.95;;
41704;Laerm;861;48.808;9.006;2023-07-16T08:51:10;36.80;35.40;38.11;;
41704;Laerm;861;48.808;9.006;2023-07-16T08:53:39;36.83;35.14;38.08;;
41704;Laerm;861;48.808;9.006;2023-07-16T08:56:06;36.81;35.34;38.05;;
41704;Laerm;861;48.808;9.006;2023-07-16T08:58:33;36.70;35.35;38.00;;
41704;Laerm;861;48.808;9.006;2023-07-16T09:01:02;36.66;35.02;37.92;;
41704;Laerm;861;48.808;9.006;2023-07-16T09:03:29;36.71;35.11;38.02;;
41704;Laerm;861;48.808;9.006;2023-07-16T09:05:56;36.91;35.39;38.11;;
41704;Laerm;861;48.808;9.006;2023-07-16T09:08:22;36.85;35.49;38.06;;
41704;Laerm;861;48.808;9.006;2023-07-16T09:10:56;36.86;35.60;38.01;;
41704;Laerm;861;48.808;9.006;2023-07-16T09:13:25;36.86;35.69;38.19;;
41704;Laerm;861;48.808;9.006;2023-07-16T09:15:58;36.85;35.59;38.31;;
41704;Laerm;861;48.808;9.006;2023-07-16T09:18:27;37.08;35.61;38.48;;
41704;Laerm;861;48.808;9.006;2023-07-16T09:21:01;37.12;35.78;38.48;;
41704;Laerm;861;48.808;9.006;2023-07-16T09:23:32;37.18;35.69;38.79;;
41704;Laerm;861;48.808;9.006;2023-07-16T09:25:59;37.16;35.63;38.63;;
41704;Laerm;861;48.808;9.006;2023-07-16T09:28:26;37.16;35.84;38.39;;
41704;Laerm;861;48.808;9.006;2023-07-16T09:30:53;37.15;35.72;38.32;;
41704;Laerm;861;48.808;9.006;2023-07-16T09:33:22;37.12;35.77;38.33;;
41704;Laerm;861;48.808;9.006;2023-07-16T09:35:52;37.18;36.01;38.60;;
41704;Laerm;861;48.808;9.006;2023-07-16T09:38:20;37.20;35.87;38.36;;
41704;Laerm;861;48.808;9.006;2023-07-16T09:40:47;37.21;36.04;38.44;;
41704;Laerm;861;48.808;9.006;2023-07-16T09:43:14;37.21;35.87;38.47;;
41704;Laerm;861;48.808;9.006;2023-07-16T09:45:43;37.22;35.99;38.44;;
41704;Laerm;861;48.808;9.006;2023-07-16T09:48:12;37.22;35.83;38.62;;
41704;Laerm;861;48.808;9.006;2023-07-16T09:50:51;37.19;35.83;38.62;;
41704;Laerm;861;48.808;9.006;2023-07-16T09:53:20;37.18;36.09;38.41;;
41704;Laerm;861;48.808;9.006;2023-07-16T09:55:49;37.18;35.99;38.36;;
41704;Laerm;861;48.808;9.006;2023-07-16T09:58:20;37.06;35.62;38.33;;
41704;Laerm;861;48.808;9.006;2023-07-16T10:00:50;36.99;35.61;38.29;;
41704;Laerm;861;48.808;9.006;2023-07-16T10:03:17;37.14;35.72;38.32;;
41704;Laerm;861;48.808;9.006;2023-07-16T10:05:44;37.17;35.80;38.24;;
41704;Laerm;861;48.808;9.006;2023-07-16T10:08:19;37.27;35.89;38.60;;
41704;Laerm;861;48.808;9.006;2023-07-16T10:10:56;37.43;36.04;38.98;;
41704;Laerm;861;48.808;9.006;2023-07-16T10:13:26;37.45;35.86;38.63;;
41704;Laerm;861;48.808;9.006;2023-07-16T10:15:59;37.45;36.09;38.59;;
41704;Laerm;861;48.808;9.006;2023-07-16T10:18:31;37.49;35.80;38.93;;
41704;Laerm;861;48.808;9.006;2023-07-16T10:21:09;37.50;36.17;42.32;;
41704;Laerm;861;48.808;9.006;2023-07-16T10:23:44;37.47;36.13;44.93;;
41704;Laerm;861;48.808;9.006;2023-07-16T10:26:15;37.49;36.22;38.72;;
41704;Laerm;861;48.808;9.006;2023-07-16T10:28:41;37.49;36.01;38.97;;
41704;Laerm;861;48.808;9.006;2023-07-16T10:31:24;37.37;36.00;38.57;;
41704;Laerm;861;48.808;9.006;2023-07-16T10:34:05;37.28;35.98;38.66;;
41704;Laerm;861;48.808;9.006;2023-07-16T10:36:41;37.25;35.47;38.53;;
41704;Laerm;861;48.808;9.006;2023-07-16T10:39:08;37.27;35.89;38.49;;
41704;Laerm;861;48.808;9.006;2023-07-16T10:41:35;37.41;36.07;38.57;;
41704;Laerm;861;48.808;9.006;2023-07-16T10:44:03;37.38;36.16;38.77;;
41704;Laerm;861;48.808;9.006;2023-07-16T10:46:32;37.35;35.99;38.63;;
41704;Laerm;861;48.808;9.006;2023-07-16T10:48:59;37.36;35.97;38.69;;
41704;Laerm;861;48.808;9.006;2023-07-16T10:51:27;37.32;36.11;38.86;;
41704;Laerm;861;48.808;9.006;2023-07-16T10:53:56;37.31;35.98;38.57;;
41704;Laerm;861;48.808;9.006;2023-07-16T10:56:23;37.26;35.79;38.66;;
41704;Laerm;861;48.808;9.006;2023-07-16T10:58:50;37.19;35.75;38.49;;
41704;Laerm;861;48.808;9.006;2023-07-16T11:01:18;37.39;36.03;38.80;;
41704;Laerm;861;48.808;9.006;2023-07-16T11:03:45;37.39;35.89;38.73;;
41704;Laerm;861;48.808;9.006;2023-07-16T11:06:12;37.41;35.92;38.58;;
41704;Laerm;861;48.808;9.006;2023-07-16T11:08:39;37.31;35.84;38.64;;
41704;Laerm;861;48.808;9.006;2023-07-16T11:11:05;37.33;36.00;38.58;;
41704;Laerm;861;48.808;9.006;2023-07-16T11:13:33;37.31;36.09;38.51;;
41704;Laerm;861;48.808;9.006;2023-07-16T11:16:11;37.30;36.00;38.51;;
41704;Laerm;861;48.808;9.006;2023-07-16T11:18:39;37.38;35.70;38.65;;
41704;Laerm;861;48.808;9.006;2023-07-16T11:21:08;37.51;36.17;38.84;;
41704;Laerm;861;48.808;9.006;2023-07-16T11:23:35;37.37;35.60;38.68;;
41704;Laerm;861;48.808;9.006;2023-07-16T11:26:05;37.26;35.93;38.47;;
41704;Laerm;861;48.808;9.006;2023-07-16T11:28:43;37.23;35.91;38.48;;
41704;Laerm;861;48.808;9.006;2023-07-16T11:31:18;37.29;35.75;38.57;;
41704;Laerm;861;48.808;9.006;2023-07-16T11:33:46;37.31;35.85;38.71;;
41704;Laerm;861;48.808;9.006;2023-07-16T11:36:14;37.31;35.97;38.54;;
41704;Laerm;861;48.808;9.006;2023-07-16T11:38:40;37.36;35.98;38.60;;
41704;Laerm;861;48.808;9.006;2023-07-16T11:41:07;37.34;35.98;38.62;;
41704;Laerm;861;48.808;9.006;2023-07-16T11:43:40;37.32;36.02;38.90;;
41704;Laerm;861;48.808;9.006;2023-07-16T11:46:17;37.30;35.96;38.63;;
41704;Laerm;861;48.808;9.006;2023-07-16T11:48:44;37.36;35.90;38.62;;
41704;Laerm;861;48.808;9.006;2023-07-16T11:51:10;37.34;35.81;38.59;;
41704;Laerm;861;48.808;9.006;2023-07-16T11:53:37;37.28;35.95;38.45;;
41704;Laerm;861;48.808;9.006;2023-07-16T11:56:04;37.41;36.00;38.75;;
41704;Laerm;861;48.808;9.006;2023-07-16T11:58:30;37.44;35.97;38.78;;
41704;Laerm;861;48.808;9.006;2023-07-16T12:00:57;37.24;35.80;38.60;;
41704;Laerm;861;48.808;9.006;2023-07-16T12:03:23;37.19;35.65;38.41;;
41704;Laerm;861;48.808;9.006;2023-07-16T12:05:51;37.28;36.03;38.48;;
41704;Laerm;861;48.808;9.006;2023-07-16T12:08:18;37.11;35.61;38.43;;
41704;Laerm;861;48.808;9.006;2023-07-16T12:10:44;37.02;35.43;38.55;;
41704;Laerm;861;48.808;9.006;2023-07-16T12:13:11;37.04;35.69;38.27;;
41704;Laerm;861;48.808;9.006;2023-07-16T12:15:38;37.00;35.50;38.44;;
41704;Laerm;861;48.808;9.006;2023-07-16T12:18:04;37.11;35.70;38.35;;
41704;Laerm;861;48.808;9.006;2023-07-16T12:20:31;37.13;35.78;38.44;;
41704;Laerm;861;48.808;9.006;2023-07-16T12:22:57;37.15;35.57;38.43;;
41704;Laerm;861;48.808;9.006;2023-07-16T12:25:24;37.16;35.87;38.40;;
41704;Laerm;861;48.808;9.006;2023-07-16T12:27:50;37.25;36.01;38.51;;
41704;Laerm;861;48.808;9.006;2023-07-16T12:30:17;37.18;35.81;38.70;;
41704;Laerm;861;48.808;9.006;2023-07-16T12:32:43;37.22;35.50;38.69;;
41704;Laerm;861;48.808;9.006;2023-07-16T12:35:10;37.27;35.71;38.55;;
41704;Laerm;861;48.808;9.006;2023-07-16T12:37:36;37.08;35.50;38.48;;
41704;Laerm;861;48.808;9.006;2023-07-16T12:40:03;37.00;35.40;38.23;;
41704;Laerm;861;48.808;9.006;2023-07-16T12:42:31;36.97;35.59;38.22;;
41704;Laerm;861;48.808;9.006;2023-07-16T12:44:58;37.01;35.49;38.27;;
41704;Laerm;861;48.808;9.006;2023-07-16T12:47:25;37.16;35.71;38.47;;
41704;Laerm;861;48.808;9.006;2023-07-16T12:49:51;37.24;35.68;38.56;;
41704;Laerm;861;48.808;9.006;2023-07-16T12:52:18;37.33;35.98;38.61;;
41704;Laerm;861;48.808;9.006;2023-07-16T12:54:45;37.21;35.63;38.58;;
41704;Laerm;861;48.808;9.006;2023-07-16T12:57:12;37.31;35.72;38.70;;
41704;Laerm;861;48.808;9.006;2023-07-16T12:59:39;37.14;35.71;38.45;;
41704;Laerm;861;48.808;9.006;2023-07-16T13:02:06;37.17;35.68;38.57;;
41704;Laerm;861;48.808;9.006;2023-07-16T13:04:32;37.14;35.78;38.71;;
41704;Laerm;861;48.808;9.006;2023-07-16T13:06:59;37.13;35.86;38.51;;
41704;Laerm;861;48.808;9.006;2023-07-16T13:09:26;37.01;35.31;38.35;;
41704;Laerm;861;48.808;9.006;2023-07-16T13:11:53;36.94;35.51;38.31;;
41704;Laerm;861;48.808;9.006;2023-07-16T13:14:19;36.87;35.48;38.29;;
41704;Laerm;861;48.808;9.006;2023-07-16T13:16:46;36.92;35.55;38.31;;
41704;Laerm;861;48.808;9.006;2023-07-16T13:19:12;37.01;35.46;38.38;;
41704;Laerm;861;48.808;9.006;2023-07-16T13:21:39;37.09;35.72;38.43;;
41704;Laerm;861;48.808;9.006;2023-07-16T13:24:06;37.16;35.89;38.70;;
41704;Laerm;861;48.808;9.006;2023-07-16T13:26:33;37.00;35.35;38.31;;
41704;Laerm;861;48.808;9.006;2023-07-16T13:29:00;36.78;35.14;38.16;;
41704;Laerm;861;48.808;9.006;2023-07-16T13:31:26;36.81;35.43;38.05;;
41704;Laerm;861;48.808;9.006;2023-07-16T13:33:53;36.78;35.41;38.15;;
41704;Laerm;861;48.808;9.006;2023-07-16T13:36:20;36.80;35.38;38.16;;
41704;Laerm;861;48.808;9.006;2023-07-16T13:38:46;36.72;35.29;38.08;;
41704;Laerm;861;48.808;9.006;2023-07-16T13:41:13;36.70;35.33;37.89;;
41704;Laerm;861;48.808;9.006;2023-07-16T13:43:39;36.77;35.26;38.32;;
41704;Laerm;861;48.808;9.006;2023-07-16T13:46:06;36.99;35.49;38.21;;
41704;Laerm;861;48.808;9.006;2023-07-16T13:48:32;37.13;35.63;38.43;;
41704;Laerm;861;48.808;9.006;2023-07-16T13:50:59;37.06;35.65;38.55;;
41704;Laerm;861;48.808;9.006;2023-07-16T13:53:25;37.03;35.57;39.05;;
41704;Laerm;861;48.808;9.006;2023-07-16T13:55:52;37.07;35.68;38.23;;
41704;Laerm;861;48.808;9.006;2023-07-16T13:58:19;37.05;35.58;38.31;;
41704;Laerm;861;48.808;9.006;2023-07-16T14:00:46;36.98;35.57;38.34;;
41704;Laerm;861;48.808;9.006;2023-07-16T14:03:12;36.71;35.29;38.04;;
41704;Laerm;861;48.808;9.006;2023-07-16T14:05:39;36.75;35.00;38.04;;
41704;Laerm;861;48.808;9.006;2023-07-16T14:08:07;36.65;35.35;38.01;;
41704;Laerm;861;48.808;9.006;2023-07-16T14:10:34;36.59;35.30;38.04;;
41704;Laerm;861;48.808;9.006;2023-07-16T14:13:00;36.57;35.17;37.90;;
41704;Laerm;861;48.808;9.006;2023-07-16T14:15:27;36.54;34.93;37.68;;
41704;Laerm;861;48.808;9.006;2023-07-16T14:17:53;36.59;35.17;37.91;;